Time;durP1;ratioP1;P1;durP2;ratioP2;P2;SDS_P1;SDS_P2;PMS_P1;PMS_P2;Temp;Humidity;BMP_temperature;BMP_pressure;BME280_temperature;BME280_humidity;BME280_pressure;Samples;Min_cycle;Max_cycle;Signal;HPM_P1;HPM_P2
2022/08/19 00:00:50;;;;;;;2.28;0.10;;;;;;;18.95;100.00;99337.38;7385160;19;20006;-81
2022/08/19 00:03:16;;;;;;;1.27;0.80;;;;;;;18.93;100.00;99340.75;7387197;19;20019;-80
2022/08/19 00:05:43;;;;;;;0.32;0.20;;;;;;;18.94;100.00;99341.50;7389359;19;20014;-81
2022/08/19 00:08:09;;;;;;;0.20;0.10;;;;;;;18.94;100.00;99341.50;7393623;19;20027;-83
2022/08/19 00:10:35;;;;;;;4.00;0.47;;;;;;;18.96;100.00;99344.53;7395424;19;20082;-83
2022/08/19 00:13:01;;;;;;;2.47;0.55;;;;;;;18.98;100.00;99336.28;7396307;19;20011;-81
2022/08/19 00:15:27;;;;;;;19.25;0.40;;;;;;;19.01;100.00;99343.66;7396942;19;20018;-81
2022/08/19 00:17:54;;;;;;;0.38;0.10;;;;;;;19.03;100.00;99343.88;7395363;19;20018;-81
2022/08/19 00:20:21;;;;;;;0.28;0.10;;;;;;;19.02;100.00;99342.34;7398574;19;20364;-80
2022/08/19 00:22:48;;;;;;;1.85;0.75;;;;;;;19.02;100.00;99341.59;7395411;19;20366;-80
2022/08/19 00:25:15;;;;;;;0.90;0.00;;;;;;;19.02;100.00;99345.16;7393821;19;20595;-81
2022/08/19 00:27:41;;;;;;;0.40;0.00;;;;;;;19.00;100.00;99350.59;7392113;19;20014;-80
2022/08/19 00:30:09;;;;;;;1.00;0.10;;;;;;;19.01;100.00;99345.72;7398479;19;20018;-81
2022/08/19 00:32:36;;;;;;;1.65;0.30;;;;;;;18.99;100.00;99349.09;7396302;19;20055;-81
2022/08/19 00:35:03;;;;;;;2.05;0.30;;;;;;;18.97;100.00;99363.00;7394304;19;20363;-81
2022/08/19 00:37:29;;;;;;;1.13;0.55;;;;;;;19.00;100.00;99390.13;7397647;19;20015;-80
2022/08/19 00:39:56;;;;;;;1.02;0.10;;;;;;;18.98;100.00;99386.31;7399556;19;20018;-81
2022/08/19 00:42:22;;;;;;;3.72;0.43;;;;;;;18.88;100.00;99388.84;7391401;19;20074;-80
2022/08/19 00:44:50;;;;;;;1.70;0.50;;;;;;;18.77;100.00;99394.72;7396178;19;20018;-81
2022/08/19 00:47:16;;;;;;;0.65;0.20;;;;;;;18.60;100.00;99402.75;7393644;19;20010;-81
2022/08/19 00:49:52;;;;;;;3.17;0.50;;;;;;;18.35;100.00;99415.47;7398482;19;20014;-81
2022/08/19 00:52:26;;;;;;;4.38;0.65;;;;;;;18.11;100.00;99405.13;7391068;19;20007;-80
2022/08/19 00:54:53;;;;;;;0.25;0.20;;;;;;;17.96;100.00;99405.63;7395120;19;20554;-80
2022/08/19 00:57:26;;;;;;;2.83;0.30;;;;;;;17.86;100.00;99409.38;7393355;19;20082;-80
2022/08/19 00:59:54;;;;;;;2.47;0.40;;;;;;;17.74;100.00;99408.78;7396360;19;20330;-80
2022/08/19 01:02:21;;;;;;;0.77;0.10;;;;;;;17.66;100.00;99405.09;7392280;19;20011;-80
2022/08/19 01:04:47;;;;;;;1.75;0.57;;;;;;;17.57;100.00;99413.91;7394564;19;20445;-80
2022/08/19 01:07:13;;;;;;;0.20;0.20;;;;;;;17.44;100.00;99402.56;7393751;19;20078;-80
2022/08/19 01:09:39;;;;;;;7.32;0.25;;;;;;;17.35;100.00;99403.72;7396884;19;20109;-80
2022/08/19 01:12:06;;;;;;;3.72;0.68;;;;;;;17.23;100.00;99398.78;7393599;19;20388;-81
2022/08/19 01:14:33;;;;;;;2.28;0.30;;;;;;;17.10;100.00;99402.28;7394840;19;20014;-80
2022/08/19 01:17:00;;;;;;;0.32;0.10;;;;;;;16.99;100.00;99398.84;7397406;19;20015;-80
2022/08/19 01:19:35;;;;;;;2.63;0.82;;;;;;;16.84;100.00;99401.31;7394923;19;20026;-80
2022/08/19 01:22:12;;;;;;;2.65;0.52;;;;;;;16.77;100.00;99399.09;7397324;19;20014;-80
2022/08/19 01:24:39;;;;;;;22.42;0.68;;;;;;;16.66;100.00;99408.44;7396646;19;20025;-81
2022/08/19 01:27:07;;;;;;;0.82;0.30;;;;;;;16.58;100.00;99413.91;7394685;19;20014;-80
2022/08/19 01:29:36;;;;;;;0.45;0.22;;;;;;;16.52;100.00;99410.34;7395635;19;20015;-81
2022/08/19 01:32:03;;;;;;;3.28;0.63;;;;;;;16.53;100.00;99416.75;7392400;19;20015;-80
2022/08/19 01:34:29;;;;;;;1.65;0.43;;;;;;;16.50;100.00;99410.13;7391101;19;20018;-80
2022/08/19 01:36:55;;;;;;;3.35;0.40;;;;;;;16.48;100.00;99421.09;7394591;19;20192;-80
2022/08/19 01:39:24;;;;;;;0.30;0.20;;;;;;;16.48;100.00;99418.28;7394067;19;20018;-80
2022/08/19 01:41:54;;;;;;;1.20;0.40;;;;;;;16.46;100.00;99418.06;7391205;19;20034;-80
2022/08/19 01:44:23;;;;;;;0.85;0.30;;;;;;;16.42;100.00;99414.78;7393357;19;20022;-80
2022/08/19 01:46:51;;;;;;;1.10;0.10;;;;;;;16.38;100.00;99411.50;7392731;19;20025;-80
2022/08/19 01:49:19;;;;;;;1.38;0.70;;;;;;;16.31;100.00;99417.69;7393960;19;20034;-81
2022/08/19 01:51:46;;;;;;;0.28;0.28;;;;;;;16.25;100.00;99422.63;7391396;19;20015;-80
2022/08/19 01:54:15;;;;;;;0.75;0.38;;;;;;;16.20;100.00;99425.50;7393431;19;20340;-81
2022/08/19 01:56:41;;;;;;;0.28;0.10;;;;;;;16.16;100.00;99422.94;7391382;19;20495;-80
2022/08/19 01:59:16;;;;;;;2.05;0.52;;;;;;;16.12;100.00;99441.38;7393948;19;20480;-80
2022/08/19 02:01:42;;;;;;;0.15;0.13;;;;;;;16.07;100.00;99431.72;7390884;19;20031;-79
2022/08/19 02:04:09;;;;;;;0.40;0.30;;;;;;;16.06;100.00;99435.81;7393029;19;20036;-80
2022/08/19 02:06:35;;;;;;;0.20;0.10;;;;;;;16.04;100.00;99432.00;7393147;19;20488;-80
2022/08/19 02:09:02;;;;;;;0.47;0.38;;;;;;;16.02;100.00;99435.34;7395207;19;20052;-80
2022/08/19 02:11:33;;;;;;;0.75;0.55;;;;;;;16.02;100.00;99443.78;7387461;19;20579;-80
2022/08/19 02:14:01;;;;;;;0.40;0.30;;;;;;;16.02;100.00;99440.19;7389660;19;20014;-80
2022/08/19 02:16:28;;;;;;;0.90;0.40;;;;;;;16.06;100.00;99440.66;7389165;19;20033;-80
2022/08/19 02:18:54;;;;;;;0.88;0.22;;;;;;;16.05;100.00;99436.34;7392306;19;20464;-80
2022/08/19 02:21:22;;;;;;;1.70;0.95;;;;;;;16.02;100.00;99446.59;7390238;19;20086;-80
2022/08/19 02:23:50;;;;;;;6.93;0.68;;;;;;;15.99;100.00;99453.22;7391500;19;20025;-80
2022/08/19 02:26:17;;;;;;;0.47;0.20;;;;;;;15.98;100.00;99451.72;7393003;19;20377;-80
2022/08/19 02:28:43;;;;;;;0.20;0.10;;;;;;;15.99;100.00;99453.22;7391632;19;20649;-79
2022/08/19 02:31:15;;;;;;;2.50;0.90;;;;;;;15.94;100.00;99452.00;7390946;19;20418;-81
2022/08/19 02:33:41;;;;;;;3.72;0.95;;;;;;;15.91;100.00;99458.66;7392934;19;20022;-80
2022/08/19 02:36:08;;;;;;;1.55;0.43;;;;;;;15.86;100.00;99461.50;7392236;19;20022;-80
2022/08/19 02:38:35;;;;;;;1.38;0.40;;;;;;;15.81;100.00;99454.63;7389474;19;20675;-80
2022/08/19 02:41:04;;;;;;;10.80;1.02;;;;;;;15.76;100.00;99458.25;7391656;19;20018;-80
2022/08/19 02:43:36;;;;;;;0.45;0.10;;;;;;;15.70;100.00;99451.91;7392030;19;20584;-80
2022/08/19 02:46:21;;;;;;;0.75;0.25;;;;;;;15.66;100.00;99459.06;7390735;19;20022;-79
2022/08/19 02:48:53;;;;;;;1.00;0.63;;;;;;;15.60;100.00;99455.53;7393135;19;20010;-80
2022/08/19 02:51:23;;;;;;;2.42;0.45;;;;;;;15.56;100.00;99457.88;7391097;19;20048;-80
2022/08/19 02:53:49;;;;;;;15.82;1.05;;;;;;;15.50;100.00;99462.75;7391478;19;20014;-81
2022/08/19 02:56:15;;;;;;;3.05;0.30;;;;;;;15.48;100.00;99460.47;7391443;19;20023;-80
2022/08/19 02:58:42;;;;;;;1.83;0.55;;;;;;;15.45;100.00;99463.53;7393614;19;20026;-80
2022/08/19 03:01:10;;;;;;;8.35;0.55;;;;;;;15.39;100.00;99465.59;7390728;19;20014;-80
2022/08/19 03:03:37;;;;;;;2.10;0.60;;;;;;;15.34;100.00;99466.38;7391283;19;20025;-80
2022/08/19 03:06:09;;;;;;;11.25;0.60;;;;;;;15.26;100.00;99463.38;7390232;19;20031;-80
2022/08/19 03:08:36;;;;;;;2.60;0.70;;;;;;;15.19;100.00;99463.91;7392813;19;21076;-80
2022/08/19 03:11:03;;;;;;;3.22;0.45;;;;;;;15.12;100.00;99462.41;7390731;19;20015;-80
2022/08/19 03:13:29;;;;;;;1.45;0.50;;;;;;;15.10;100.00;99470.56;7391428;19;20025;-80
2022/08/19 03:15:56;;;;;;;0.68;0.40;;;;;;;15.02;100.00;99469.59;7390183;19;20483;-80
2022/08/19 03:18:22;;;;;;;0.57;0.15;;;;;;;14.95;100.00;99460.94;7388150;19;20009;-80
2022/08/19 03:20:52;;;;;;;5.10;0.30;;;;;;;14.85;100.00;99471.69;7390506;19;20022;-80
2022/08/19 03:23:18;;;;;;;0.57;0.10;;;;;;;14.75;100.00;99462.00;7390927;19;20045;-80
2022/08/19 03:25:46;;;;;;;1.10;0.63;;;;;;;14.68;100.00;99462.56;7388704;19;20025;-81
2022/08/19 03:28:15;;;;;;;1.55;0.75;;;;;;;14.57;100.00;99461.81;7389709;19;20024;-80
2022/08/19 03:30:43;;;;;;;1.65;0.80;;;;;;;14.48;100.00;99464.88;7388748;19;20078;-80
2022/08/19 03:33:13;;;;;;;1.08;0.50;;;;;;;14.39;100.00;99471.50;7389555;19;20038;-80
2022/08/19 03:35:40;;;;;;;2.17;0.20;;;;;;;14.29;100.00;99473.78;7392089;19;20013;-80
2022/08/19 03:38:06;;;;;;;0.77;0.28;;;;;;;14.19;100.00;99486.50;7389710;19;20023;-80
2022/08/19 03:40:36;;;;;;;0.38;0.38;;;;;;;14.07;100.00;99487.03;7388092;19;20496;-80
2022/08/19 03:43:02;;;;;;;0.30;0.17;;;;;;;13.98;100.00;99490.06;7395598;19;20022;-80
2022/08/19 03:45:29;;;;;;;4.65;0.40;;;;;;;13.90;100.00;99487.00;7395849;19;20472;-80
2022/08/19 03:47:55;;;;;;;3.42;0.68;;;;;;;13.82;100.00;99494.34;7396675;19;20015;-80
2022/08/19 03:50:21;;;;;;;3.42;1.67;;;;;;;13.74;100.00;99486.97;7401025;19;20489;-80
2022/08/19 03:52:50;;;;;;;0.30;0.30;;;;;;;13.67;100.00;99505.78;7397257;19;20037;-80
2022/08/19 03:55:17;;;;;;;0.40;0.30;;;;;;;13.58;100.00;99497.63;7397402;19;20010;-80
2022/08/19 03:57:45;;;;;;;12.00;0.63;;;;;;;13.51;100.00;99500.16;7395486;19;20022;-81
2022/08/19 04:00:12;;;;;;;3.20;0.40;;;;;;;13.47;100.00;99508.78;7399591;19;20668;-81
2022/08/19 04:02:38;;;;;;;2.38;0.20;;;;;;;13.40;100.00;99509.28;7397138;19;20018;-80
2022/08/19 04:05:06;;;;;;;3.88;0.90;;;;;;;13.40;100.00;99506.47;7395852;19;20358;-80
2022/08/19 04:07:33;;;;;;;0.90;0.55;;;;;;;13.47;100.00;99517.16;7394931;19;20055;-80
2022/08/19 04:09:59;;;;;;;2.05;0.73;;;;;;;13.55;100.00;99509.84;7398849;19;20428;-80
2022/08/19 04:12:26;;;;;;;0.63;0.30;;;;;;;13.63;100.00;99518.50;7395996;19;20389;-80
2022/08/19 04:14:53;;;;;;;2.70;0.50;;;;;;;13.71;100.00;99519.53;7397534;19;20011;-81
2022/08/19 04:17:19;;;;;;;1.75;0.52;;;;;;;13.80;100.00;99526.91;7395666;19;20015;-81
2022/08/19 04:19:45;;;;;;;0.80;0.30;;;;;;;13.82;100.00;99522.34;7399647;19;20022;-80
2022/08/19 04:22:11;;;;;;;1.48;0.75;;;;;;;13.90;100.00;99522.63;7392031;19;20019;-80
2022/08/19 04:24:37;;;;;;;0.40;0.30;;;;;;;13.88;100.00;99520.31;7396728;19;20018;-80
2022/08/19 04:27:05;;;;;;;0.25;0.25;;;;;;;13.83;100.00;99523.13;7396077;19;20038;-80
2022/08/19 04:29:32;;;;;;;2.35;0.17;;;;;;;13.77;100.00;99525.94;7399547;19;20026;-80
2022/08/19 04:31:59;;;;;;;0.55;0.22;;;;;;;13.74;100.00;99515.72;7392366;19;20015;-80
2022/08/19 04:34:28;;;;;;;0.10;0.10;;;;;;;13.74;100.00;99531.75;7396108;19;20022;-80
2022/08/19 04:36:56;;;;;;;0.65;0.28;;;;;;;13.62;100.00;99523.31;7396528;19;20019;-80
2022/08/19 04:45:02;;;;;;;0.55;0.45;;;;;;;13.40;100.00;99545.66;7395037;19;20468;-80
2022/08/19 04:47:29;;;;;;;0.30;0.20;;;;;;;13.34;100.00;99542.03;7393347;19;20087;-80
2022/08/19 04:49:55;;;;;;;1.00;0.38;;;;;;;13.27;100.00;99550.16;7397728;19;20022;-80
2022/08/19 04:52:21;;;;;;;0.22;0.22;;;;;;;13.21;100.00;99547.31;7391707;19;20357;-80
2022/08/19 04:54:47;;;;;;;1.40;0.15;;;;;;;13.15;100.00;99540.94;7392775;19;20018;-80
2022/08/19 04:57:14;;;;;;;0.65;0.65;;;;;;;13.11;100.00;99542.44;7395221;19;20018;-81
2022/08/19 04:59:40;;;;;;;1.38;1.27;;;;;;;13.02;100.00;99551.75;7397696;19;20015;-80
2022/08/19 05:02:08;;;;;;;0.32;0.32;;;;;;;12.98;100.00;99556.81;7392095;19;20018;-80
2022/08/19 05:04:35;;;;;;;1.88;0.68;;;;;;;12.93;100.00;99554.75;7393939;19;20029;-80
2022/08/19 05:07:01;;;;;;;0.98;0.47;;;;;;;12.87;100.00;99563.13;7393221;19;20010;-81
2022/08/19 05:09:28;;;;;;;0.77;0.35;;;;;;;12.80;100.00;99562.78;7395562;19;20038;-79
2022/08/19 05:11:55;;;;;;;1.13;0.35;;;;;;;12.74;100.00;99562.00;7391675;19;20022;-80
2022/08/19 05:14:21;;;;;;;0.45;0.20;;;;;;;12.68;100.00;99567.56;7394478;19;20011;-80
2022/08/19 05:16:47;;;;;;;4.00;0.52;;;;;;;12.66;100.00;99564.50;7394355;19;20469;-80
2022/08/19 05:24:44;;;;;;;0.38;0.38;;;;;;;12.58;100.00;99562.66;7394426;19;20018;-80
2022/08/19 05:27:10;;;;;;;0.55;0.52;;;;;;;12.53;100.00;99571.75;7394083;19;20006;-80
2022/08/19 05:29:37;;;;;;;1.95;0.65;;;;;;;12.53;100.00;99577.34;7397459;19;20342;-80
2022/08/19 05:32:08;;;;;;;0.98;0.40;;;;;;;12.54;100.00;99582.41;7391305;19;20029;-80
2022/08/19 05:34:35;;;;;;;0.40;0.30;;;;;;;12.58;100.00;99585.00;7393207;19;20010;-80
2022/08/19 05:37:02;;;;;;;0.70;0.57;;;;;;;12.58;100.00;99585.00;7396716;19;20010;-82
2022/08/19 05:39:32;;;;;;;0.38;0.20;;;;;;;12.57;100.00;99595.41;7400121;19;20010;-81
2022/08/19 05:42:03;;;;;;;0.25;0.25;;;;;;;12.60;100.00;99593.66;7392567;19;20018;-82
2022/08/19 05:44:33;;;;;;;;;;;;;;;12.58;100.00;99596.91;7391799;19;20019;-81
2022/08/19 05:47:01;;;;;;;0.68;0.68;;;;;;;12.61;100.00;99597.97;7392566;19;20261;-82
2022/08/19 05:49:29;;;;;;;0.30;0.10;;;;;;;12.67;100.00;99604.34;7397468;19;20097;-82
2022/08/19 05:51:55;;;;;;;5.15;1.77;;;;;;;12.71;100.00;99602.13;7391923;19;20019;-82
2022/08/19 05:54:25;;;;;;;2.53;0.75;;;;;;;12.72;100.00;99600.84;7392808;19;20010;-85
2022/08/19 05:56:53;;;;;;;8.52;2.20;;;;;;;12.75;100.00;99611.03;7396305;19;20022;-85
2022/08/19 05:59:21;;;;;;;1.48;1.02;;;;;;;12.78;100.00;99612.81;7399631;19;20480;-86
2022/08/19 06:01:52;;;;;;;1.08;0.57;;;;;;;12.77;100.00;99608.50;7393204;19;20011;-85
2022/08/19 06:04:19;;;;;;;;;;;;;;;12.77;100.00;99602.94;7392739;19;20350;-83
2022/08/19 06:06:51;;;;;;;1.67;0.45;;;;;;;12.77;100.00;99603.69;7393012;19;19942;-84
2022/08/19 06:09:18;;;;;;;0.75;0.50;;;;;;;12.80;100.00;99607.50;7395315;19;20050;-83
2022/08/19 06:11:48;;;;;;;2.65;0.82;;;;;;;12.84;100.00;99608.06;7394955;19;20022;-83
2022/08/19 06:14:18;;;;;;;1.50;0.52;;;;;;;12.86;100.00;99609.06;7397201;19;20488;-83
2022/08/19 06:16:45;;;;;;;5.88;0.40;;;;;;;12.87;100.00;99602.25;7392719;19;20081;-82
2022/08/19 06:19:15;;;;;;;6.68;0.98;;;;;;;12.89;100.00;99604.53;7393961;19;20086;-82
2022/08/19 06:21:47;;;;;;;2.28;0.70;;;;;;;12.90;100.00;99608.88;7395750;19;20021;-82
2022/08/19 06:24:17;;;;;;;2.13;0.50;;;;;;;12.92;100.00;99623.09;7396699;19;20037;-82
2022/08/19 06:26:46;;;;;;;1.13;0.60;;;;;;;12.98;100.00;99618.31;7396449;19;20572;-83
2022/08/19 06:29:15;;;;;;;0.68;0.32;;;;;;;13.17;100.00;99627.88;7396705;19;20015;-83
2022/08/19 06:31:47;;;;;;;4.63;0.68;;;;;;;13.37;100.00;99627.75;7392399;19;20022;-82
2022/08/19 06:34:13;;;;;;;2.08;0.60;;;;;;;13.53;100.00;99629.88;7390630;19;20484;-82
2022/08/19 06:36:43;;;;;;;1.63;0.90;;;;;;;13.60;100.00;99646.19;7393715;19;20028;-82
2022/08/19 06:39:12;;;;;;;6.60;1.20;;;;;;;13.62;100.00;99635.25;7391847;19;20018;-81
2022/08/19 06:41:42;;;;;;;1.52;0.40;;;;;;;13.62;100.00;99637.31;7390815;19;20533;-82
2022/08/19 06:44:18;;;;;;;4.13;0.52;;;;;;;13.60;100.00;99634.97;7390322;19;20352;-82
2022/08/19 06:46:44;;;;;;;1.75;0.90;;;;;;;13.58;100.00;99637.53;7390520;19;20015;-82
2022/08/19 06:49:13;;;;;;;1.40;0.52;;;;;;;13.59;100.00;99632.69;7394882;19;20055;-84
2022/08/19 06:51:47;;;;;;;4.72;0.82;;;;;;;13.60;100.00;99640.59;7390714;19;20023;-82
2022/08/19 06:54:14;;;;;;;4.95;0.40;;;;;;;13.64;100.00;99631.97;7389767;19;20011;-82
2022/08/19 06:56:41;;;;;;;2.28;0.70;;;;;;;13.67;100.00;99636.53;7392882;19;20022;-82
2022/08/19 06:59:11;;;;;;;1.38;0.57;;;;;;;13.72;100.00;99630.22;7393629;19;20022;-81
2022/08/19 07:01:47;;;;;;;6.30;1.03;;;;;;;13.91;100.00;99624.94;7391616;19;20006;-81
2022/08/19 07:04:20;;;;;;;2.72;0.20;;;;;;;14.08;100.00;99632.13;7393762;19;20010;-83
2022/08/19 07:06:46;;;;;;;0.65;0.40;;;;;;;14.11;100.00;99633.16;7391582;19;20022;-83
2022/08/19 07:09:14;;;;;;;3.85;0.45;;;;;;;14.10;100.00;99631.59;7394267;19;20019;-82
2022/08/19 07:11:48;;;;;;;2.63;0.60;;;;;;;14.13;100.00;99639.00;7389708;19;20047;-81
2022/08/19 07:14:17;;;;;;;2.65;0.50;;;;;;;14.15;100.00;99642.84;7388604;19;20014;-80
2022/08/19 07:16:45;;;;;;;1.85;0.43;;;;;;;14.28;100.00;99642.34;7395831;19;20031;-81
2022/08/19 07:19:13;;;;;;;0.20;0.20;;;;;;;14.40;100.00;99641.88;7403426;19;20014;-81
2022/08/19 07:21:39;;;;;;;1.63;0.65;;;;;;;14.56;100.00;99639.63;7399202;19;20031;-81
2022/08/19 07:24:05;;;;;;;1.98;0.40;;;;;;;14.61;100.00;99641.66;7396600;19;20082;-82
2022/08/19 07:26:33;;;;;;;0.52;0.52;;;;;;;14.66;100.00;99633.25;7396973;19;20466;-81
2022/08/19 07:29:01;;;;;;;0.75;0.47;;;;;;;14.75;100.00;99637.88;7397852;19;20010;-81
2022/08/19 07:31:28;;;;;;;1.92;1.10;;;;;;;14.77;100.00;99638.88;7393976;19;20070;-81
2022/08/19 07:33:56;;;;;;;6.90;1.50;;;;;;;14.84;100.00;99643.97;7398259;19;20464;-82
2022/08/19 07:36:31;;;;;;;0.20;0.20;;;;;;;14.82;100.00;99645.75;7399025;19;20015;-81
2022/08/19 07:39:00;;;;;;;0.38;0.38;;;;;;;14.87;100.00;99647.78;7398711;19;20014;-82
2022/08/19 07:41:30;;;;;;;2.20;0.95;;;;;;;14.89;100.00;99650.84;7394485;19;20015;-81
2022/08/19 07:43:58;;;;;;;2.80;0.82;;;;;;;14.89;100.00;99650.84;7398113;19;20014;-82
2022/08/19 07:46:24;;;;;;;0.20;0.15;;;;;;;14.94;100.00;99656.44;7396323;19;20022;-82
2022/08/19 07:48:51;;;;;;;4.40;0.30;;;;;;;15.08;100.00;99663.84;7399478;19;20021;-81
2022/08/19 07:51:21;;;;;;;2.13;1.10;;;;;;;15.19;100.00;99663.84;7393855;19;20022;-82
2022/08/19 07:53:50;;;;;;;0.10;0.10;;;;;;;15.28;100.00;99670.44;7397233;19;20018;-82
2022/08/19 07:56:18;;;;;;;2.67;0.65;;;;;;;15.35;100.00;99658.72;7396127;19;20014;-80
2022/08/19 07:58:46;;;;;;;5.82;1.08;;;;;;;15.42;100.00;99666.63;7396278;19;20353;-81
2022/08/19 08:01:19;;;;;;;1.23;0.75;;;;;;;15.44;100.00;99666.91;7395439;19;20026;-80
2022/08/19 08:09:31;;;;;;;8.50;1.00;;;;;;;15.67;100.00;99662.75;7400090;19;20043;-80
2022/08/19 08:12:03;;;;;;;2.75;0.55;;;;;;;15.67;100.00;99668.34;7392679;19;20552;-81
2022/08/19 08:14:34;;;;;;;2.58;0.70;;;;;;;15.69;100.00;99666.56;7397788;19;20019;-80
2022/08/19 08:17:02;;;;;;;0.63;0.60;;;;;;;15.72;100.00;99670.41;7395259;19;20036;-80
2022/08/19 08:19:28;;;;;;;5.28;1.40;;;;;;;15.81;100.00;99662.44;7398618;19;20022;-80
2022/08/19 08:21:56;;;;;;;1.25;0.30;;;;;;;15.88;100.00;99666.75;7393693;19;20019;-80
2022/08/19 08:24:24;;;;;;;0.82;0.22;;;;;;;15.82;100.00;99666.00;7393502;19;20039;-80
2022/08/19 08:26:50;;;;;;;2.05;0.93;;;;;;;15.86;100.00;99660.88;7394907;19;20010;-81
2022/08/19 08:29:16;;;;;;;8.50;1.40;;;;;;;15.96;100.00;99656.50;7395920;19;20082;-80
2022/08/19 08:31:44;;;;;;;1.58;0.13;;;;;;;15.94;100.00;99659.06;7392879;19;20010;-81
2022/08/19 08:34:12;;;;;;;2.42;0.40;;;;;;;16.05;100.00;99647.78;7395020;19;20024;-80
2022/08/19 08:36:41;;;;;;;17.08;0.45;;;;;;;16.04;100.00;99657.50;7397482;19;20018;-82
2022/08/19 08:39:19;;;;;;;0.63;0.40;;;;;;;16.09;100.00;99656.69;7396332;19;20018;-81
2022/08/19 08:42:09;;;;;;;0.55;0.17;;;;;;;16.16;100.00;99653.34;7391506;19;20078;-82
2022/08/19 08:44:52;;;;;;;6.82;0.52;;;;;;;16.33;100.00;99650.47;7395708;19;20049;-80
2022/08/19 08:47:21;;;;;;;6.13;0.52;;;;;;;16.38;100.00;99647.59;7394532;19;20015;-81
2022/08/19 08:49:54;;;;;;;2.85;0.60;;;;;;;16.43;100.00;99655.25;7392099;19;20022;-80
2022/08/19 08:52:29;;;;;;;1.33;0.57;;;;;;;16.57;100.00;99653.38;7395358;19;20055;-81
2022/08/19 08:54:58;;;;;;;0.30;0.28;;;;;;;16.80;100.00;99653.97;7394168;19;20078;-79
2022/08/19 08:57:54;;;;;;;1.95;0.57;;;;;;;17.00;100.00;99650.75;7394288;19;20006;-83
2022/08/19 09:00:29;;;;;;;4.47;0.40;;;;;;;17.20;100.00;99648.25;7393954;19;20015;-81
2022/08/19 09:02:57;;;;;;;4.82;0.68;;;;;;;17.36;100.00;99666.28;7393767;19;20046;-79
2022/08/19 09:05:29;;;;;;;8.77;0.82;;;;;;;17.44;100.00;99661.56;7397988;19;20329;-79
2022/08/19 09:08:18;;;;;;;2.90;0.75;;;;;;;17.29;100.00;99662.00;7398928;19;20018;-79
2022/08/19 09:10:48;;;;;;;0.25;0.10;;;;;;;17.06;100.00;99665.53;7393207;19;20378;-80
2022/08/19 09:13:27;;;;;;;9.07;0.50;;;;;;;17.04;100.00;99662.47;7395055;19;20028;-79
2022/08/19 09:16:20;;;;;;;0.57;0.22;;;;;;;17.04;100.00;99668.09;7394814;19;20432;-80
2022/08/19 09:18:52;;;;;;;1.48;0.63;;;;;;;17.01;100.00;99669.16;7392267;19;20014;-79
2022/08/19 09:21:23;;;;;;;0.68;0.40;;;;;;;17.04;100.00;99665.28;7391942;19;20014;-80
2022/08/19 09:23:50;;;;;;;0.20;0.10;;;;;;;17.22;100.00;99664.59;7394048;19;20382;-78
2022/08/19 09:26:20;;;;;;;1.05;0.73;;;;;;;17.41;100.00;99668.28;7394092;19;20026;-78
2022/08/19 09:28:49;;;;;;;2.90;0.35;;;;;;;17.43;100.00;99674.16;7395136;19;20524;-78
2022/08/19 09:31:18;;;;;;;0.50;0.50;;;;;;;17.35;100.00;99684.44;7392215;19;20010;-77
2022/08/19 09:33:45;;;;;;;4.90;1.40;;;;;;;17.27;100.00;99686.31;7392810;19;20341;-78
2022/08/19 09:36:14;;;;;;;0.50;0.35;;;;;;;17.27;100.00;99680.69;7393931;19;20018;-77
2022/08/19 09:38:41;;;;;;;2.03;0.68;;;;;;;17.42;100.00;99683.88;7391449;19;20018;-80
2022/08/19 09:41:13;;;;;;;5.72;0.57;;;;;;;17.66;100.00;99689.53;7391847;19;20025;-81
2022/08/19 09:43:41;;;;;;;1.65;0.22;;;;;;;18.18;100.00;99681.50;7393992;19;20014;-80
2022/08/19 09:46:09;;;;;;;1.20;1.10;;;;;;;18.67;100.00;99681.34;7392292;19;20018;-80
2022/08/19 09:48:37;;;;;;;2.67;0.30;;;;;;;19.15;100.00;99675.44;7394790;19;20552;-79
2022/08/19 09:51:09;;;;;;;0.90;0.20;;;;;;;19.63;100.00;99669.47;7393194;19;20007;-79
2022/08/19 09:53:36;;;;;;;1.20;0.20;;;;;;;19.73;100.00;99671.88;7393834;19;20073;-80
2022/08/19 09:56:03;;;;;;;3.40;0.60;;;;;;;19.56;100.00;99683.47;7393416;19;20022;-78
2022/08/19 09:58:30;;;;;;;5.05;0.10;;;;;;;19.24;100.00;99689.16;7391862;19;20025;-80
2022/08/19 10:00:58;;;;;;;12.38;0.85;;;;;;;18.90;100.00;99688.19;7392327;19;20018;-78
2022/08/19 10:03:25;;;;;;;1.50;0.60;;;;;;;18.71;100.00;99687.47;7390844;19;20021;-80
2022/08/19 10:05:52;;;;;;;0.30;0.30;;;;;;;18.83;100.00;99686.75;7391824;19;20101;-79
2022/08/19 10:08:22;;;;;;;0.90;0.10;;;;;;;19.04;100.00;99677.69;7388526;19;20006;-80
2022/08/19 10:10:49;;;;;;;1.77;0.30;;;;;;;18.97;100.00;99676.28;7385715;19;20015;-79
2022/08/19 10:13:21;;;;;;;0.10;0.00;;;;;;;18.89;100.00;99681.78;7386993;19;20252;-80
2022/08/19 10:15:50;;;;;;;1.58;0.30;;;;;;;19.14;100.00;99675.97;7385981;19;20862;-80
2022/08/19 10:18:18;;;;;;;0.32;0.10;;;;;;;19.54;100.00;99683.25;7387314;19;20473;-81
2022/08/19 10:20:49;;;;;;;3.92;0.40;;;;;;;19.84;100.00;99685.78;7387858;19;20042;-79
2022/08/19 10:23:15;;;;;;;;;;;;;;;19.98;100.00;99679.56;7392654;19;20029;-80
2022/08/19 10:25:42;;;;;;;1.15;0.50;;;;;;;20.04;100.00;99680.22;7389229;19;19923;-80
2022/08/19 10:28:11;;;;;;;1.65;0.10;;;;;;;20.48;100.00;99675.69;7393561;19;20018;-80
2022/08/19 10:30:39;;;;;;;6.32;1.58;;;;;;;20.73;100.00;99668.41;7390910;19;20029;-80
2022/08/19 10:33:06;;;;;;;1.70;0.10;;;;;;;20.87;100.00;99667.06;7391022;19;20495;-78
2022/08/19 10:35:33;;;;;;;5.70;0.30;;;;;;;20.71;100.00;99661.78;7391825;19;20362;-78
2022/08/19 10:38:01;;;;;;;0.57;0.20;;;;;;;20.74;100.00;99658.63;7389502;19;20500;-78
2022/08/19 10:40:28;;;;;;;4.85;0.10;;;;;;;20.83;100.00;99661.00;7392111;19;20019;-79
2022/08/19 10:42:55;;;;;;;2.30;0.10;;;;;;;20.84;100.00;99661.72;7393155;19;20023;-79
2022/08/19 10:45:24;;;;;;;5.93;0.73;;;;;;;20.66;100.00;99657.78;7394037;19;20017;-78
2022/08/19 10:47:50;;;;;;;0.10;0.00;;;;;;;20.52;100.00;99661.97;7391498;19;20365;-79
2022/08/19 10:53:08;;;;;;;0.35;0.10;;;;;;;20.16;100.00;99666.59;7394636;19;20384;-78
2022/08/19 10:58:25;;;;;;;1.38;0.25;;;;;;;19.86;100.00;99677.50;7391104;19;20038;-79
2022/08/19 11:00:54;;;;;;;3.47;0.70;;;;;;;19.92;100.00;99675.34;7390010;19;20018;-79
2022/08/19 11:03:20;;;;;;;4.78;0.10;;;;;;;20.08;100.00;99679.88;7389178;19;20399;-79
2022/08/19 11:05:56;;;;;;;1.95;0.25;;;;;;;20.34;100.00;99683.44;7390211;19;20026;-79
2022/08/19 11:08:24;;;;;;;0.85;0.65;;;;;;;20.60;100.00;99671.28;7392051;19;20353;-79
2022/08/19 11:11:00;;;;;;;0.68;0.20;;;;;;;20.49;100.00;99665.88;7394446;19;20023;-79
2022/08/19 11:13:33;;;;;;;7.75;0.22;;;;;;;20.21;100.00;99669.34;7392861;19;20019;-78
2022/08/19 11:16:01;;;;;;;1.65;0.10;;;;;;;19.96;100.00;99670.09;7388686;19;20090;-78
2022/08/19 11:18:28;;;;;;;3.30;0.00;;;;;;;19.93;100.00;99674.00;7389615;19;20011;-79
2022/08/19 11:20:54;;;;;;;0.65;0.10;;;;;;;20.13;100.00;99676.16;7389412;19;20035;-79
2022/08/19 11:23:20;;;;;;;0.00;0.00;;;;;;;20.29;100.00;99672.28;7390544;19;20011;-79
2022/08/19 11:25:46;;;;;;;0.30;0.15;;;;;;;20.44;100.00;99680.94;7394181;19;20018;-78
2022/08/19 11:28:13;;;;;;;0.00;0.00;;;;;;;20.53;100.00;99674.78;7389295;19;20011;-78
2022/08/19 11:30:39;;;;;;;1.95;0.28;;;;;;;20.55;100.00;99662.94;7389484;19;20694;-80
2022/08/19 11:33:05;;;;;;;1.10;0.10;;;;;;;20.50;100.00;99673.09;7389870;19;20025;-78
2022/08/19 11:35:32;;;;;;;0.17;0.10;;;;;;;20.36;100.00;99680.06;7391551;19;20014;-78
2022/08/19 11:38:01;;;;;;;1.20;0.10;;;;;;;20.19;100.00;99682.47;7388223;19;20029;-79
2022/08/19 11:40:27;;;;;;;2.28;0.10;;;;;;;20.00;100.00;99676.94;7390985;19;20028;-79
2022/08/19 11:42:56;;;;;;;3.22;0.30;;;;;;;20.09;100.00;99679.34;7389278;19;20014;-79
2022/08/19 11:45:26;;;;;;;0.40;0.10;;;;;;;20.08;100.00;99677.03;7389215;19;20059;-78
2022/08/19 11:47:53;;;;;;;0.63;0.22;;;;;;;20.13;100.00;99684.66;7389878;19;20019;-79
2022/08/19 11:50:20;;;;;;;2.25;0.10;;;;;;;20.15;100.00;99682.81;7392676;19;20019;-79
2022/08/19 11:52:49;;;;;;;0.95;0.45;;;;;;;20.08;100.00;99682.69;7388179;19;20023;-80
2022/08/19 11:55:15;;;;;;;1.95;0.20;;;;;;;20.20;100.00;99678.34;7389709;19;20015;-80